createdAt,value
2023-03-08T00:01:03.230Z,16.426
2023-03-08T00:03:05.103Z,6.177
2023-03-08T00:05:06.199Z,10.81
2023-03-08T00:07:07.160Z,9.828
2023-03-08T00:09:09.020Z,13.197
2023-03-08T00:11:10.318Z,7.441
2023-03-08T00:13:11.846Z,14.04
2023-03-08T00:15:13.376Z,9.547
2023-03-08T00:17:14.428Z,8.002
2023-03-08T00:19:15.988Z,12.214
2023-03-08T00:21:17.300Z,6.598
2023-03-08T00:23:19.074Z,9.828
2023-03-08T00:25:20.951Z,11.232
2023-03-08T00:27:22.865Z,6.458
2023-03-08T00:29:24.857Z,7.862
2023-03-08T00:31:25.885Z,11.232
2023-03-08T00:33:26.925Z,11.653
2023-03-08T00:35:28.001Z,7.581
2023-03-08T00:37:29.496Z,8.845
2023-03-08T00:39:31.156Z,8.283
2023-03-08T00:41:32.231Z,9.126
2023-03-08T00:43:33.652Z,6.177
2023-03-08T00:45:35.614Z,11.793
2023-03-08T00:47:37.303Z,6.739
2023-03-08T00:49:38.584Z,9.687
2023-03-08T00:51:39.952Z,6.037
2023-03-08T00:53:41.083Z,6.879
2023-03-08T00:55:42.717Z,7.3
2023-03-08T00:57:43.811Z,6.598
2023-03-08T00:59:45.040Z,7.581
2023-03-08T01:03:48.651Z,13.478
2023-03-08T01:05:49.975Z,8.564
2023-03-08T01:06:33.893Z,5.616
2023-03-08T01:08:35.243Z,5.896
2023-03-08T01:10:36.473Z,8.704
2023-03-08T01:12:37.705Z,9.547
2023-03-08T01:14:39.091Z,7.3
2023-03-08T01:16:40.574Z,9.126
2023-03-08T01:18:42.442Z,6.318
2023-03-08T01:20:43.527Z,8.985
2023-03-08T01:24:46.884Z,9.266
2023-03-08T01:26:48.110Z,7.722
2023-03-08T01:28:49.475Z,9.968
2023-03-08T01:30:51.284Z,8.564
2023-03-08T01:34:54.337Z,6.879
2023-03-08T01:36:56.125Z,8.985
2023-03-08T01:38:57.708Z,8.704
2023-03-08T01:40:59.613Z,6.739
2023-03-08T01:43:01.224Z,8.564
2023-03-08T01:45:03.129Z,6.177
2023-03-08T01:47:04.458Z,8.143
2023-03-08T01:49:06.238Z,6.318
2023-03-08T01:51:08.025Z,15.444
2023-03-08T01:53:09.876Z,7.3
2023-03-08T01:55:11.189Z,7.441
2023-03-08T01:57:12.994Z,10.67
2023-03-08T01:59:14.362Z,5.756
2023-03-08T02:01:16.052Z,8.564
2023-03-08T02:03:17.436Z,9.968
2023-03-08T02:07:20.426Z,14.882
2023-03-08T02:09:21.562Z,12.495
2023-03-08T02:11:23.521Z,10.53
2023-03-08T02:13:25.295Z,8.424
2023-03-08T02:17:28.907Z,9.547
2023-03-08T02:19:30.266Z,8.143
2023-03-08T02:21:31.623Z,6.739
2023-03-08T02:23:33.191Z,6.458
2023-03-08T02:25:34.983Z,2.948
2023-03-08T02:27:36.386Z,4.352
2023-03-08T02:29:37.791Z,7.722
2023-03-08T02:31:39.387Z,10.81
2023-03-08T02:33:41.180Z,9.406
2023-03-08T02:35:42.694Z,10.249
2023-03-08T02:37:44.217Z,3.931
2023-03-08T02:39:46.181Z,5.335
2023-03-08T02:41:47.761Z,8.564
2023-03-08T02:43:49.333Z,2.106
2023-03-08T02:45:50.794Z,5.335
2023-03-08T02:49:54.129Z,0.14
2023-03-08T02:51:55.666Z,2.808
2023-03-08T02:53:57.196Z,4.492
2023-03-08T02:55:58.235Z,3.229
2023-03-08T03:00:01.534Z,3.51
2023-03-08T03:02:03.468Z,4.071
2023-03-08T03:04:04.729Z,9.266
2023-03-08T03:06:06.302Z,5.335
2023-03-08T03:08:07.373Z,2.386
2023-03-08T03:10:08.860Z,2.527
2023-03-08T03:12:09.894Z,7.16
2023-03-08T03:14:11.506Z,4.352
2023-03-08T03:16:12.700Z,3.931
2023-03-08T03:18:14.376Z,3.088
2023-03-08T03:22:17.263Z,6.177
2023-03-08T03:24:18.820Z,2.948
2023-03-08T03:26:20.417Z,3.51
2023-03-08T03:28:21.984Z,3.79
2023-03-08T03:32:25.060Z,3.229
2023-03-08T03:34:26.200Z,5.335
2023-03-08T03:36:27.310Z,4.633
2023-03-08T03:38:29.173Z,4.492
2023-03-08T03:42:32.442Z,3.51
2023-03-08T03:44:33.654Z,3.931
2023-03-08T03:46:35.297Z,7.862
2023-03-08T03:48:36.709Z,2.667
2023-03-08T03:50:38.114Z,3.088
2023-03-08T03:52:39.525Z,3.229
2023-03-08T03:54:40.849Z,4.212
2023-03-08T03:56:42.401Z,2.948
2023-03-08T03:58:43.510Z,3.51
2023-03-08T04:00:45.181Z,5.896
2023-03-08T04:04:48.003Z,4.071
2023-03-08T04:06:49.746Z,0.561
2023-03-08T04:08:51.519Z,2.948
2023-03-08T04:10:52.975Z,3.51
2023-03-08T04:14:56.270Z,3.088
2023-03-08T04:16:57.929Z,2.808
2023-03-08T04:18:59.305Z,2.386
2023-03-08T04:21:00.554Z,2.246
2023-03-08T04:23:02.012Z,4.212
2023-03-08T04:25:03.739Z,4.352
2023-03-08T04:27:05.044Z,4.212
2023-03-08T04:29:06.323Z,3.088
2023-03-08T04:31:08.030Z,1.965
2023-03-08T04:33:09.498Z,0.842
2023-03-08T04:35:11.187Z,1.404
2023-03-08T04:37:12.932Z,2.246
2023-03-08T04:39:14.054Z,1.263
2023-03-08T04:41:16.056Z,4.773
2023-03-08T04:43:17.552Z,1.825
2023-03-08T04:47:20.697Z,2.527
2023-03-08T04:49:22.176Z,2.386
2023-03-08T04:51:23.982Z,1.965
2023-03-08T04:53:25.216Z,2.808
2023-03-08T04:57:27.772Z,2.808
2023-03-08T04:59:28.966Z,2.527
2023-03-08T05:01:30.896Z,1.544
2023-03-08T05:03:32.329Z,1.404
2023-03-08T05:05:33.378Z,0.702
2023-03-08T05:07:35.393Z,0.842
2023-03-08T05:09:37.345Z,0.702
2023-03-08T05:11:38.509Z,0.421
2023-03-08T05:13:39.909Z,2.246
2023-03-08T05:15:41.818Z,2.667
2023-03-08T05:17:43.374Z,4.071
2023-03-08T05:19:44.671Z,1.684
2023-03-08T05:21:45.753Z,3.65
2023-03-08T05:23:46.997Z,3.088
2023-03-08T05:25:48.953Z,2.527
2023-03-08T05:27:50.868Z,3.229
2023-03-08T05:29:52.025Z,0.982
2023-03-08T05:31:54.076Z,1.825
2023-03-08T05:33:55.547Z,1.965
2023-03-08T05:35:57.548Z,3.369
2023-03-08T05:37:59.441Z,2.948
2023-03-08T05:40:01.402Z,2.106
2023-03-08T05:42:02.466Z,2.948
2023-03-08T05:44:03.674Z,3.229
2023-03-08T05:46:05.005Z,1.404
2023-03-08T05:48:06.414Z,2.246
2023-03-08T05:50:08.356Z,2.808
2023-03-08T05:52:09.779Z,4.633
2023-03-08T05:54:11.717Z,1.263
2023-03-08T05:56:13.448Z,1.825
2023-03-08T05:58:14.671Z,2.386
2023-03-08T06:00:16.180Z,4.212
2023-03-08T06:02:17.304Z,1.965
2023-03-08T06:04:19.115Z,3.088
2023-03-08T06:06:20.538Z,3.51
2023-03-08T06:08:21.967Z,2.106
2023-03-08T06:10:23.600Z,3.088
2023-03-08T06:12:25.502Z,0.842
2023-03-08T06:14:27.152Z,4.773
2023-03-08T06:16:28.658Z,4.773
2023-03-08T06:18:29.730Z,3.088
2023-03-08T06:20:31.128Z,1.544
2023-03-08T06:22:32.429Z,3.79
2023-03-08T06:24:34.383Z,2.386
2023-03-08T06:26:35.406Z,3.51
2023-03-08T06:28:37.209Z,2.808
2023-03-08T06:30:39.128Z,3.229
2023-03-08T06:32:40.877Z,3.65
2023-03-08T06:34:42.758Z,7.02
2023-03-08T06:36:44.338Z,3.51
2023-03-08T06:38:46.218Z,1.544
2023-03-08T06:40:47.706Z,1.825
2023-03-08T06:42:48.762Z,2.667
2023-03-08T06:44:50.352Z,4.071
2023-03-08T06:46:52.022Z,4.773
2023-03-08T06:48:54.088Z,8.564
2023-03-08T06:50:55.958Z,1.684
2023-03-08T06:52:57.405Z,3.931
2023-03-08T06:54:59.189Z,1.544
2023-03-08T06:57:00.349Z,5.475
2023-03-08T06:59:02.015Z,4.492
2023-03-08T07:01:03.987Z,4.633
2023-03-08T07:03:05.994Z,4.492
2023-03-08T07:05:07.167Z,2.527
2023-03-08T07:07:08.215Z,4.633
2023-03-08T07:09:09.840Z,4.212
2023-03-08T07:11:11.692Z,4.492
2023-03-08T07:13:12.689Z,5.475
2023-03-08T07:15:14.258Z,1.965
2023-03-08T07:17:15.699Z,3.51
2023-03-08T07:19:16.993Z,0.28
2023-03-08T07:21:18.565Z,2.667
2023-03-08T07:23:19.944Z,2.667
2023-03-08T07:25:21.761Z,2.246
2023-03-08T07:27:23.520Z,0
2023-03-08T07:29:24.919Z,1.544
2023-03-08T07:31:26.050Z,0.561
2023-03-08T07:33:27.808Z,1.404
2023-03-08T07:35:29.396Z,2.667
2023-03-08T07:37:31.132Z,1.684
2023-03-08T07:39:32.470Z,0.702
2023-03-08T07:41:33.861Z,0
2023-03-08T07:43:35.476Z,0
2023-03-08T07:45:37.383Z,1.684
2023-03-08T07:47:39.068Z,0.14
2023-03-08T07:49:41.073Z,1.684
2023-03-08T07:51:43.031Z,0.14
2023-03-08T07:52:26.913Z,0
2023-03-08T07:54:28.445Z,0
2023-03-08T07:56:29.679Z,0
2023-03-08T07:58:31.635Z,0
2023-03-08T08:00:33.206Z,0
2023-03-08T08:02:34.485Z,0
2023-03-08T08:04:36.302Z,0
2023-03-08T08:06:37.862Z,1.965
2023-03-08T08:08:39.613Z,2.527
2023-03-08T08:10:40.615Z,4.492
2023-03-08T08:12:41.911Z,1.123
2023-03-08T08:14:43.643Z,1.684
2023-03-08T08:16:45.019Z,1.263
2023-03-08T08:18:46.476Z,3.369
2023-03-08T08:20:48.182Z,0.982
2023-03-08T08:22:49.243Z,1.404
2023-03-08T08:24:51.026Z,1.965
2023-03-08T08:26:52.434Z,0.421
2023-03-08T08:30:55.572Z,1.965
2023-03-08T08:32:56.670Z,3.65
2023-03-08T08:35:00.259Z,2.246
2023-03-08T08:36:59.831Z,4.492
2023-03-08T08:41:02.593Z,1.965
2023-03-08T08:43:04.264Z,1.123
2023-03-08T08:45:05.895Z,2.106
2023-03-08T08:47:07.875Z,2.808
2023-03-08T08:49:09.368Z,1.544
2023-03-08T08:51:10.807Z,4.352
2023-03-08T08:53:12.245Z,2.246
2023-03-08T08:55:14.175Z,4.914
2023-03-08T08:57:16.044Z,0.842
2023-03-08T08:59:17.108Z,2.246
2023-03-08T09:01:18.792Z,1.684
2023-03-08T09:03:20.667Z,0
2023-03-08T09:05:22.037Z,1.404
2023-03-08T09:07:23.361Z,1.825
2023-03-08T09:09:25.431Z,2.667
2023-03-08T09:13:28.783Z,3.79
2023-03-08T09:15:29.981Z,4.071
2023-03-08T09:17:31.971Z,1.825
2023-03-08T09:19:33.061Z,3.79
2023-03-08T09:23:36.420Z,1.825
2023-03-08T09:25:37.508Z,4.352
2023-03-08T09:27:39.374Z,2.386
2023-03-08T09:29:41.116Z,4.352
2023-03-08T09:31:42.239Z,4.212
2023-03-08T09:33:43.279Z,1.544
2023-03-08T09:35:45.256Z,3.088
2023-03-08T09:37:46.453Z,3.369
2023-03-08T09:39:47.705Z,1.825
2023-03-08T09:41:49.519Z,2.808
2023-03-08T09:43:50.843Z,1.825
2023-03-08T09:45:51.934Z,4.633
2023-03-08T09:47:53.435Z,0.421
2023-03-08T09:49:54.502Z,3.229
2023-03-08T09:51:55.712Z,5.335
2023-03-08T09:55:59.487Z,4.914
2023-03-08T09:58:00.743Z,4.212
2023-03-08T10:00:02.164Z,4.914
2023-03-08T10:02:03.836Z,2.808
2023-03-08T10:06:06.190Z,4.633
2023-03-08T10:08:07.779Z,2.667
2023-03-08T10:10:09.692Z,5.756
2023-03-08T10:12:13.289Z,4.212
2023-03-08T10:14:13.144Z,3.229
2023-03-08T10:18:16.054Z,1.965
2023-03-08T10:20:17.653Z,5.194
2023-03-08T10:22:18.747Z,0.982
2023-03-08T10:24:20.016Z,6.037
2023-03-08T10:28:23.129Z,2.386
2023-03-08T10:30:25.136Z,3.79
2023-03-08T10:32:26.588Z,3.088
2023-03-08T10:34:28.134Z,6.037
2023-03-08T10:38:31.957Z,3.369
2023-03-08T10:40:33.584Z,7.3
2023-03-08T10:42:34.596Z,4.212
2023-03-08T10:44:35.735Z,2.106
2023-03-08T10:48:39.085Z,5.475
2023-03-08T10:50:40.387Z,6.879
2023-03-08T10:52:41.956Z,5.054
2023-03-08T10:54:43.333Z,2.948
2023-03-08T10:56:45.292Z,5.194
2023-03-08T10:58:46.812Z,5.756
2023-03-08T11:00:48.001Z,6.739
2023-03-08T11:02:49.161Z,3.369
2023-03-08T11:04:50.515Z,2.106
2023-03-08T11:06:52.368Z,6.318
2023-03-08T11:10:55.561Z,4.352
2023-03-08T11:12:57.017Z,4.492
2023-03-08T11:14:58.766Z,3.229
2023-03-08T11:17:00.177Z,3.51
2023-03-08T11:21:03.087Z,5.194
2023-03-08T11:23:04.985Z,4.071
2023-03-08T11:25:06.388Z,3.931
2023-03-08T11:27:08.162Z,4.633
2023-03-08T11:31:11.382Z,5.194
2023-03-08T11:33:12.558Z,4.773
2023-03-08T11:35:14.297Z,3.229
2023-03-08T11:37:16.158Z,7.3
2023-03-08T11:39:17.491Z,4.633
2023-03-08T11:41:19.214Z,9.968
2023-03-08T11:43:20.547Z,4.914
2023-03-08T11:45:22.008Z,2.667
2023-03-08T11:47:22.996Z,3.088
2023-03-08T11:49:24.456Z,2.808
2023-03-08T11:51:25.889Z,5.475
2023-03-08T11:53:27.052Z,5.475
2023-03-08T11:55:28.626Z,6.318
2023-03-08T11:57:29.988Z,6.598
2023-03-08T11:59:31.704Z,4.633
2023-03-08T12:01:32.805Z,5.335
2023-03-08T12:03:34.410Z,4.633
2023-03-08T12:05:35.429Z,3.931
2023-03-08T12:07:37.015Z,2.948
2023-03-08T12:09:38.541Z,4.212
2023-03-08T12:11:39.823Z,6.318
2023-03-08T12:13:41.758Z,6.037
2023-03-08T12:15:43.340Z,4.212
2023-03-08T12:17:44.507Z,3.931
2023-03-08T12:19:45.755Z,3.79
2023-03-08T12:21:46.859Z,4.352
2023-03-08T12:23:48.535Z,2.527
2023-03-08T12:25:49.709Z,3.088
2023-03-08T12:27:51.735Z,4.352
2023-03-08T12:29:53.311Z,1.263
2023-03-08T12:31:54.744Z,5.194
2023-03-08T12:33:55.774Z,2.808
2023-03-08T12:35:57.416Z,3.79
2023-03-08T12:37:58.831Z,1.684
2023-03-08T12:40:00.480Z,0.561
2023-03-08T12:42:02.460Z,0.561
2023-03-08T12:44:03.981Z,2.386
2023-03-08T12:46:05.033Z,3.51
2023-03-08T12:48:14.675Z,0.702
2023-03-08T12:50:08.575Z,2.667
2023-03-08T12:52:18.589Z,1.404
2023-03-08T12:54:11.683Z,3.229
2023-03-08T12:56:12.791Z,0.28
2023-03-08T12:58:14.523Z,1.965
2023-03-08T13:02:17.440Z,0.28
2023-03-08T13:04:24.851Z,1.123
2023-03-08T13:06:19.968Z,2.808
2023-03-08T13:08:21.316Z,2.106
2023-03-08T13:12:24.604Z,1.825
2023-03-08T13:14:25.803Z,2.527
2023-03-08T13:16:27.274Z,4.352
2023-03-08T13:18:29.170Z,4.212
2023-03-08T13:20:31.019Z,2.948
2023-03-08T13:22:32.933Z,0.561
2023-03-08T13:24:34.730Z,6.177
2023-03-08T13:26:49.277Z,6.177
2023-03-08T13:28:46.415Z,6.458
2023-03-08T13:30:38.854Z,2.386
2023-03-08T13:32:40.662Z,5.194
2023-03-08T13:34:42.067Z,1.825
2023-03-08T13:36:43.624Z,3.088
2023-03-08T13:38:44.852Z,3.931
2023-03-08T13:40:46.128Z,5.335
2023-03-08T13:44:49.589Z,3.65
2023-03-08T13:46:51.124Z,4.773
2023-03-08T13:48:52.237Z,0.421
2023-03-08T13:50:53.776Z,0.14
2023-03-08T13:54:56.120Z,3.931
2023-03-08T13:56:57.975Z,2.948
2023-03-08T13:58:59.336Z,3.931
2023-03-08T14:01:02.176Z,3.65
2023-03-08T14:03:01.716Z,5.756
2023-03-08T14:05:03.425Z,4.212
2023-03-08T14:07:04.539Z,1.684
2023-03-08T14:09:05.726Z,5.616
2023-03-08T14:11:07.122Z,4.492
2023-03-08T14:13:08.166Z,6.037
2023-03-08T14:15:09.237Z,2.808
2023-03-08T14:17:10.944Z,8.704
2023-03-08T14:19:12.167Z,5.054
2023-03-08T14:21:13.747Z,4.914
2023-03-08T14:23:15.386Z,3.088
2023-03-08T14:27:18.662Z,9.266
2023-03-08T14:29:20.428Z,5.054
2023-03-08T14:31:22.323Z,5.756
2023-03-08T14:33:33.520Z,10.389
2023-03-08T14:35:24.760Z,9.828
2023-03-08T14:37:26.067Z,7.441
2023-03-08T14:38:09.897Z,10.108
2023-03-08T14:40:11.411Z,8.424
2023-03-08T14:42:13.066Z,8.424
2023-03-08T14:44:14.126Z,10.951
2023-03-08T14:46:15.619Z,7.581
2023-03-08T14:48:17.447Z,4.773
2023-03-08T14:50:19.207Z,12.074
2023-03-08T14:52:20.145Z,4.071
2023-03-08T14:54:21.473Z,3.229
2023-03-08T14:56:22.933Z,2.527
2023-03-08T14:58:24.053Z,4.212
2023-03-08T15:00:25.412Z,8.283
2023-03-08T15:02:26.900Z,9.547
2023-03-08T15:04:28.265Z,7.02
2023-03-08T15:06:29.851Z,6.739
2023-03-08T15:08:31.355Z,1.825
2023-03-08T15:10:33.291Z,3.65
2023-03-08T15:12:34.323Z,9.687
2023-03-08T15:14:36.049Z,8.704
2023-03-08T15:16:37.335Z,6.879
2023-03-08T15:18:38.925Z,3.088
2023-03-08T15:20:40.744Z,6.458
2023-03-08T15:22:41.863Z,4.914
2023-03-08T15:24:43.561Z,5.756
2023-03-08T15:26:44.864Z,4.071
2023-03-08T15:30:57.340Z,4.914
2023-03-08T15:32:49.250Z,9.406
2023-03-08T15:34:50.668Z,2.246
2023-03-08T15:36:52.051Z,7.722
2023-03-08T15:39:51.896Z,3.088
2023-03-08T15:40:55.421Z,4.071
2023-03-08T15:42:56.584Z,8.143
2023-03-08T15:44:57.532Z,4.492
2023-03-08T15:46:58.757Z,9.126
2023-03-08T15:49:00.358Z,4.914
2023-03-08T15:51:01.468Z,7.581
2023-03-08T15:53:03.012Z,5.616
2023-03-08T15:55:04.342Z,6.318
2023-03-08T15:57:05.736Z,5.896
2023-03-08T15:59:07.125Z,5.896
2023-03-08T16:03:10.054Z,4.071
2023-03-08T16:05:11.426Z,6.879
2023-03-08T16:07:12.728Z,6.037
2023-03-08T16:45:40.573Z,5.335
2023-03-08T16:47:42.517Z,8.002
2023-03-08T16:49:44.316Z,4.773
2023-03-08T16:51:46.222Z,5.335
2023-03-08T16:55:48.977Z,3.088
2023-03-08T16:57:50.345Z,1.965
2023-03-08T16:59:51.913Z,6.037
2023-03-08T17:01:52.903Z,3.79
2023-03-08T17:03:54.756Z,3.369
2023-03-08T17:05:56.418Z,1.684
2023-03-08T17:07:58.112Z,3.229
2023-03-08T17:09:59.419Z,7.02
2023-03-08T17:12:00.943Z,3.369
2023-03-08T17:14:02.782Z,2.948
2023-03-08T17:16:03.919Z,3.51
2023-03-08T17:18:04.835Z,4.352
2023-03-08T17:20:06.752Z,2.386
2023-03-08T17:22:08.152Z,3.65
2023-03-08T17:24:09.583Z,3.79
2023-03-08T17:26:10.648Z,0.842
2023-03-08T17:28:12.376Z,2.527
2023-03-08T17:30:13.826Z,1.544
2023-03-08T17:32:15.130Z,1.544
2023-03-08T17:34:16.536Z,0
2023-03-08T17:36:17.673Z,1.123
2023-03-08T17:38:18.913Z,0
2023-03-08T17:40:20.434Z,4.071
2023-03-08T17:42:22.254Z,3.51
2023-03-08T17:44:23.273Z,2.808
2023-03-08T17:46:25.080Z,1.825
2023-03-08T17:48:26.649Z,1.123
2023-03-08T17:50:27.811Z,0
2023-03-08T17:52:28.994Z,1.404
2023-03-08T17:54:30.186Z,0.702
2023-03-08T17:56:31.175Z,0.28
2023-03-08T17:58:32.487Z,3.51
2023-03-08T18:00:34.241Z,4.071
2023-03-08T18:02:35.554Z,3.931
2023-03-08T18:04:37.383Z,0
2023-03-08T18:06:39.182Z,0.14
2023-03-08T18:08:40.248Z,0.14
2023-03-08T18:10:41.797Z,1.544
2023-03-08T18:12:43.002Z,0
2023-03-08T18:14:44.441Z,0
2023-03-08T18:16:46.143Z,0
2023-03-08T18:18:48.066Z,2.808
2023-03-08T18:20:49.907Z,0.14
2023-03-08T18:22:51.090Z,1.404
2023-03-08T18:26:54.272Z,0
2023-03-08T18:28:55.827Z,3.79
2023-03-08T18:30:57.448Z,3.65
2023-03-08T18:32:58.762Z,2.527
2023-03-08T18:37:01.287Z,1.965
2023-03-08T18:39:03.186Z,2.106
2023-03-08T18:41:12.896Z,0
2023-03-08T18:43:06.792Z,0.14
2023-03-08T18:45:08.544Z,0.561
2023-03-08T18:47:09.587Z,0.842
2023-03-08T18:49:10.643Z,0.28
2023-03-08T18:51:12.425Z,0
2023-03-08T18:53:13.681Z,0.842
2023-03-08T18:55:14.760Z,0
2023-03-08T18:57:16.680Z,0.28
2023-03-08T18:59:18.320Z,1.684
2023-03-08T19:01:19.680Z,0
2023-03-08T19:03:21.485Z,0
2023-03-08T19:05:23.059Z,0
2023-03-08T19:09:25.957Z,0
2023-03-08T19:11:27.586Z,0
2023-03-08T19:13:28.849Z,0.14
2023-03-08T19:15:29.988Z,0
2023-03-08T19:19:33.748Z,0.14
2023-03-08T19:21:35.175Z,0
2023-03-08T19:23:36.662Z,0
2023-03-08T19:25:38.436Z,0
2023-03-08T19:27:39.955Z,0
2023-03-08T19:31:43.140Z,0
2023-03-08T19:33:44.379Z,0
2023-03-08T19:35:46.213Z,0
2023-03-08T19:37:47.677Z,0
2023-03-08T19:39:48.651Z,0
2023-03-08T19:41:49.742Z,0.14
2023-03-08T19:43:51.021Z,1.263
2023-03-08T19:45:52.204Z,0
2023-03-08T19:47:53.627Z,0
2023-03-08T19:51:56.750Z,0
2023-03-08T19:53:58.386Z,0
2023-03-08T19:55:59.640Z,0
2023-03-08T19:58:01.510Z,0
2023-03-08T20:02:04.259Z,0
2023-03-08T20:04:05.549Z,0
2023-03-08T20:06:06.531Z,0
2023-03-08T20:08:08.111Z,0
2023-03-08T20:10:15.950Z,0
2023-03-08T20:12:11.111Z,0
2023-03-08T20:14:12.815Z,1.123
2023-03-08T20:16:14.163Z,0
2023-03-08T20:18:15.693Z,0
2023-03-08T20:20:16.744Z,0
2023-03-08T20:22:17.742Z,0
2023-03-08T20:24:19.040Z,0
2023-03-08T20:26:20.623Z,0
2023-03-08T20:28:22.107Z,0
2023-03-08T20:30:24.024Z,0
2023-03-08T20:32:25.728Z,0
2023-03-08T20:34:27.045Z,0
2023-03-08T20:36:28.603Z,0
2023-03-08T20:38:29.819Z,0
2023-03-08T20:40:31.651Z,0
2023-03-08T20:42:33.239Z,0
2023-03-08T20:44:34.632Z,0
2023-03-08T20:46:36.120Z,0
2023-03-08T20:48:37.622Z,0
2023-03-08T20:50:39.063Z,0
2023-03-08T20:52:40.730Z,0
2023-03-08T20:54:42.589Z,0
2023-03-08T20:56:43.996Z,0
2023-03-08T20:58:45.584Z,0
2023-03-08T21:00:47.319Z,0
2023-03-08T21:02:48.384Z,0
2023-03-08T21:04:50.199Z,0
2023-03-08T21:06:52.105Z,0
2023-03-08T21:08:53.080Z,0
2023-03-08T21:10:54.513Z,2.667
2023-03-08T21:12:55.882Z,2.246
2023-03-08T21:14:57.145Z,0.28
2023-03-08T21:16:59.057Z,0.982
2023-03-08T21:19:00.205Z,1.825
2023-03-08T21:21:01.321Z,1.263
2023-03-08T21:23:02.376Z,4.071
2023-03-08T21:23:46.200Z,1.684
2023-03-08T21:25:47.473Z,0.702
2023-03-08T21:27:48.712Z,4.212
2023-03-08T21:29:50.155Z,4.352
2023-03-08T21:31:51.169Z,1.123
2023-03-08T21:33:53.016Z,1.684
2023-03-08T21:35:54.944Z,3.51
2023-03-08T21:37:56.681Z,3.229
2023-03-08T21:39:58.408Z,2.667
2023-03-08T21:41:59.331Z,2.948
2023-03-08T21:44:01.203Z,2.246
2023-03-08T21:46:02.269Z,3.931
2023-03-08T21:48:04.096Z,2.527
2023-03-08T21:50:05.643Z,1.825
2023-03-08T21:52:06.657Z,0.842
2023-03-08T21:54:08.128Z,4.914
2023-03-08T21:56:09.827Z,5.335
2023-03-08T21:58:11.013Z,2.667
2023-03-08T22:00:12.672Z,2.808
2023-03-08T22:02:13.909Z,1.684
2023-03-08T22:04:15.169Z,1.544
2023-03-08T22:06:16.092Z,2.527
2023-03-08T22:08:17.982Z,1.684
2023-03-08T22:10:19.598Z,0.842
2023-03-08T22:12:21.456Z,2.667
2023-03-08T22:14:22.584Z,0.842
2023-03-08T22:16:23.734Z,1.263
2023-03-08T22:18:25.166Z,0
2023-03-08T22:20:26.778Z,0.842
2023-03-08T22:22:27.923Z,0.28
2023-03-08T22:24:29.596Z,1.684
2023-03-08T22:26:30.885Z,0.982
2023-03-08T22:28:31.896Z,2.808
2023-03-08T22:30:33.162Z,3.931
2023-03-08T22:32:34.102Z,2.527
2023-03-08T22:34:35.654Z,0.28
2023-03-08T22:36:37.280Z,0.842
2023-03-08T22:38:38.730Z,1.965
2023-03-08T22:42:41.066Z,0.842
2023-03-08T22:44:42.322Z,2.667
2023-03-08T22:46:44.031Z,2.527
2023-03-08T22:48:45.342Z,1.544
2023-03-08T22:50:47.045Z,1.684
2023-03-08T22:52:48.189Z,0
2023-03-08T22:54:49.968Z,5.194
2023-03-08T22:56:51.705Z,1.965
2023-03-08T22:58:53.593Z,1.123
2023-03-08T23:00:54.983Z,1.544
2023-03-08T23:02:56.659Z,1.684
2023-03-08T23:04:57.632Z,2.386
2023-03-08T23:06:58.827Z,3.088
2023-03-08T23:09:00.033Z,1.684
2023-03-08T23:11:01.513Z,0
2023-03-08T23:13:02.567Z,0
2023-03-08T23:15:03.629Z,0
2023-03-08T23:17:04.904Z,2.386
2023-03-08T23:19:05.909Z,1.404
2023-03-08T23:21:07.719Z,2.386
2023-03-08T23:25:10.650Z,1.544
2023-03-08T23:27:12.548Z,4.773
2023-03-08T23:29:14.469Z,5.756
2023-03-08T23:31:15.987Z,4.633
2023-03-08T23:35:18.828Z,2.808
2023-03-08T23:37:20.144Z,2.948
2023-03-08T23:39:21.806Z,3.369
2023-03-08T23:41:23.155Z,2.527
2023-03-08T23:43:24.150Z,5.194
2023-03-08T23:45:25.998Z,1.825
2023-03-08T23:47:27.810Z,5.194
2023-03-08T23:49:29.184Z,5.054
2023-03-08T23:51:30.826Z,7.16
2023-03-08T23:53:32.147Z,6.598
2023-03-08T23:57:34.702Z,4.914
2023-03-08T23:59:36.254Z,5.054
